sensor_id;sensor_type;location;lat;lon;timestamp;pressure;altitude;pressure_sealevel;temperature;humidity
73936;BME280;62287;50.858;0.252;2023-05-14T00:00:21;102150.75;;;17.14;35.54
73936;BME280;62287;50.858;0.252;2023-05-14T00:00:52;102153.30;;;16.52;35.66
73936;BME280;62287;50.858;0.252;2023-05-14T00:01:23;102154.37;;;16.28;35.80
73936;BME280;62287;50.858;0.252;2023-05-14T00:01:54;102154.34;;;17.14;35.75
73936;BME280;62287;50.858;0.252;2023-05-14T00:02:25;102151.82;;;16.81;35.90
73936;BME280;62287;50.858;0.252;2023-05-14T00:02:56;102149.29;;;16.92;35.74
73936;BME280;62287;50.858;0.252;2023-05-14T00:03:27;102146.23;;;16.66;35.65
73936;BME280;62287;50.858;0.252;2023-05-14T00:03:59;102148.14;;;17.07;35.53
73936;BME280;62287;50.858;0.252;2023-05-14T00:04:30;102150.53;;;16.47;35.82
73936;BME280;62287;50.858;0.252;2023-05-14T00:05:01;102147.52;;;17.13;35.60
73936;BME280;62287;50.858;0.252;2023-05-14T00:05:32;102147.72;;;16.94;35.53
73936;BME280;62287;50.858;0.252;2023-05-14T00:06:03;102149.66;;;16.79;35.51
73936;BME280;62287;50.858;0.252;2023-05-14T00:06:34;102148.22;;;16.31;35.68
73936;BME280;62287;50.858;0.252;2023-05-14T00:07:05;102146.58;;;16.25;35.65
73936;BME280;62287;50.858;0.252;2023-05-14T00:07:36;102147.54;;;17.06;35.52
73936;BME280;62287;50.858;0.252;2023-05-14T00:08:07;102145.57;;;17.17;35.67
73936;BME280;62287;50.858;0.252;2023-05-14T00:08:38;102145.15;;;16.58;35.70
73936;BME280;62287;50.858;0.252;2023-05-14T00:09:09;102141.83;;;16.69;35.72
73936;BME280;62287;50.858;0.252;2023-05-14T00:09:41;102141.47;;;16.86;35.32
73936;BME280;62287;50.858;0.252;2023-05-14T00:10:12;102142.57;;;16.91;35.35
73936;BME280;62287;50.858;0.252;2023-05-14T00:10:43;102142.62;;;16.66;35.48
73936;BME280;62287;50.858;0.252;2023-05-14T00:11:14;102140.10;;;16.82;35.38
73936;BME280;62287;50.858;0.252;2023-05-14T00:11:45;102142.09;;;16.74;35.67
73936;BME280;62287;50.858;0.252;2023-05-14T00:12:16;102143.90;;;16.89;35.68
73936;BME280;62287;50.858;0.252;2023-05-14T00:12:47;102142.27;;;17.12;35.46
73936;BME280;62287;50.858;0.252;2023-05-14T00:13:18;102142.29;;;16.97;35.57
73936;BME280;62287;50.858;0.252;2023-05-14T00:13:50;102142.10;;;16.81;35.72
73936;BME280;62287;50.858;0.252;2023-05-14T00:14:21;102142.29;;;16.39;35.52
73936;BME280;62287;50.858;0.252;2023-05-14T00:14:52;102142.72;;;16.81;35.79
73936;BME280;62287;50.858;0.252;2023-05-14T00:15:23;102141.37;;;16.59;35.80
73936;BME280;62287;50.858;0.252;2023-05-14T00:15:54;102141.22;;;16.48;35.93
73936;BME280;62287;50.858;0.252;2023-05-14T00:16:25;102139.98;;;17.03;35.86
73936;BME280;62287;50.858;0.252;2023-05-14T00:16:56;102141.76;;;16.81;35.80
73936;BME280;62287;50.858;0.252;2023-05-14T00:17:27;102140.31;;;16.89;35.88
73936;BME280;62287;50.858;0.252;2023-05-14T00:17:58;102139.29;;;16.54;35.84
73936;BME280;62287;50.858;0.252;2023-05-14T00:18:29;102139.27;;;16.76;35.77
73936;BME280;62287;50.858;0.252;2023-05-14T00:19:00;102137.77;;;16.71;35.49
73936;BME280;62287;50.858;0.252;2023-05-14T00:19:31;102136.85;;;16.28;35.31
73936;BME280;62287;50.858;0.252;2023-05-14T00:20:02;102136.62;;;16.85;35.46
73936;BME280;62287;50.858;0.252;2023-05-14T00:20:33;102135.59;;;17.22;35.29
73936;BME280;62287;50.858;0.252;2023-05-14T00:21:04;102134.63;;;17.39;35.49
73936;BME280;62287;50.858;0.252;2023-05-14T00:21:35;102133.70;;;16.75;35.75
73936;BME280;62287;50.858;0.252;2023-05-14T00:22:06;102132.05;;;16.77;36.06
73936;BME280;62287;50.858;0.252;2023-05-14T00:22:38;102131.91;;;16.67;35.87
73936;BME280;62287;50.858;0.252;2023-05-14T00:23:09;102130.27;;;16.57;35.92
73936;BME280;62287;50.858;0.252;2023-05-14T00:23:40;102132.52;;;16.65;35.89
73936;BME280;62287;50.858;0.252;2023-05-14T00:24:11;102130.73;;;16.28;35.97
73936;BME280;62287;50.858;0.252;2023-05-14T00:24:42;102132.57;;;16.37;36.19
73936;BME280;62287;50.858;0.252;2023-05-14T00:25:13;102130.14;;;16.44;36.16
73936;BME280;62287;50.858;0.252;2023-05-14T00:25:44;102128.64;;;15.81;36.08
73936;BME280;62287;50.858;0.252;2023-05-14T00:26:15;102129.93;;;16.55;36.17
73936;BME280;62287;50.858;0.252;2023-05-14T00:26:46;102130.37;;;16.90;35.97
73936;BME280;62287;50.858;0.252;2023-05-14T00:27:17;102129.25;;;16.73;35.75
73936;BME280;62287;50.858;0.252;2023-05-14T00:27:48;102130.86;;;17.00;35.60
73936;BME280;62287;50.858;0.252;2023-05-14T00:28:19;102130.82;;;17.07;35.24
73936;BME280;62287;50.858;0.252;2023-05-14T00:28:50;102130.67;;;17.52;35.18
73936;BME280;62287;50.858;0.252;2023-05-14T00:29:21;102128.53;;;17.28;35.20
73936;BME280;62287;50.858;0.252;2023-05-14T00:29:52;102129.24;;;16.79;35.51
73936;BME280;62287;50.858;0.252;2023-05-14T00:30:23;102124.93;;;16.59;35.64
73936;BME280;62287;50.858;0.252;2023-05-14T00:30:54;102128.64;;;17.14;35.48
73936;BME280;62287;50.858;0.252;2023-05-14T00:31:26;102126.61;;;16.90;35.55
73936;BME280;62287;50.858;0.252;2023-05-14T00:31:57;102122.75;;;16.80;35.81
73936;BME280;62287;50.858;0.252;2023-05-14T00:32:27;102123.35;;;16.53;36.14
73936;BME280;62287;50.858;0.252;2023-05-14T00:32:58;102124.12;;;16.64;36.24
73936;BME280;62287;50.858;0.252;2023-05-14T00:33:29;102123.36;;;16.91;35.81
73936;BME280;62287;50.858;0.252;2023-05-14T00:34:00;102122.05;;;16.29;35.72
73936;BME280;62287;50.858;0.252;2023-05-14T00:34:31;102120.00;;;16.37;36.25
73936;BME280;62287;50.858;0.252;2023-05-14T00:35:02;102121.61;;;16.16;36.15
73936;BME280;62287;50.858;0.252;2023-05-14T00:35:33;102120.07;;;16.28;36.03
73936;BME280;62287;50.858;0.252;2023-05-14T00:36:05;102120.47;;;16.10;36.01
73936;BME280;62287;50.858;0.252;2023-05-14T00:36:36;102120.15;;;16.47;36.10
73936;BME280;62287;50.858;0.252;2023-05-14T00:37:07;102118.36;;;16.46;36.00
73936;BME280;62287;50.858;0.252;2023-05-14T00:37:38;102119.64;;;16.42;36.34
73936;BME280;62287;50.858;0.252;2023-05-14T00:38:09;102118.98;;;16.35;36.42
73936;BME280;62287;50.858;0.252;2023-05-14T00:38:40;102120.00;;;17.00;36.36
73936;BME280;62287;50.858;0.252;2023-05-14T00:39:13;102119.18;;;16.90;36.22
73936;BME280;62287;50.858;0.252;2023-05-14T00:39:44;102120.65;;;16.89;36.22
73936;BME280;62287;50.858;0.252;2023-05-14T00:40:15;102119.11;;;16.43;36.81
73936;BME280;62287;50.858;0.252;2023-05-14T00:40:46;102119.50;;;16.34;36.52
73936;BME280;62287;50.858;0.252;2023-05-14T00:41:17;102122.63;;;16.35;36.35
73936;BME280;62287;50.858;0.252;2023-05-14T00:41:48;102122.70;;;17.08;36.25
73936;BME280;62287;50.858;0.252;2023-05-14T00:42:19;102126.06;;;16.97;36.07
73936;BME280;62287;50.858;0.252;2023-05-14T00:42:50;102123.64;;;17.04;35.90
73936;BME280;62287;50.858;0.252;2023-05-14T00:43:21;102124.12;;;17.16;35.76
73936;BME280;62287;50.858;0.252;2023-05-14T00:43:52;102125.85;;;17.41;35.60
73936;BME280;62287;50.858;0.252;2023-05-14T00:44:23;102123.30;;;16.60;35.92
73936;BME280;62287;50.858;0.252;2023-05-14T00:44:54;102122.68;;;16.90;36.16
73936;BME280;62287;50.858;0.252;2023-05-14T00:45:25;102122.93;;;16.20;36.01
73936;BME280;62287;50.858;0.252;2023-05-14T00:45:56;102124.10;;;16.60;35.98
73936;BME280;62287;50.858;0.252;2023-05-14T00:46:27;102124.05;;;16.65;36.02
73936;BME280;62287;50.858;0.252;2023-05-14T00:46:58;102122.39;;;15.99;36.21
73936;BME280;62287;50.858;0.252;2023-05-14T00:47:30;102125.96;;;16.20;36.31
73936;BME280;62287;50.858;0.252;2023-05-14T00:48:01;102125.91;;;16.31;36.56
73936;BME280;62287;50.858;0.252;2023-05-14T00:48:33;102126.10;;;16.72;36.49
73936;BME280;62287;50.858;0.252;2023-05-14T00:49:04;102126.74;;;17.14;36.25
73936;BME280;62287;50.858;0.252;2023-05-14T00:49:35;102127.15;;;16.36;36.07
73936;BME280;62287;50.858;0.252;2023-05-14T00:50:07;102126.60;;;16.52;36.46
73936;BME280;62287;50.858;0.252;2023-05-14T00:50:40;102127.89;;;16.97;36.34
73936;BME280;62287;50.858;0.252;2023-05-14T00:51:11;102127.25;;;16.13;36.46
73936;BME280;62287;50.858;0.252;2023-05-14T00:51:42;102126.58;;;16.94;36.23
73936;BME280;62287;50.858;0.252;2023-05-14T00:52:14;102125.93;;;16.54;35.98
73936;BME280;62287;50.858;0.252;2023-05-14T00:52:46;102129.11;;;16.89;35.94
73936;BME280;62287;50.858;0.252;2023-05-14T00:53:18;102127.97;;;16.24;36.22
73936;BME280;62287;50.858;0.252;2023-05-14T00:53:49;102127.41;;;16.15;36.53
73936;BME280;62287;50.858;0.252;2023-05-14T00:54:21;102126.95;;;16.56;36.53
73936;BME280;62287;50.858;0.252;2023-05-14T00:54:53;102126.45;;;16.76;36.26
73936;BME280;62287;50.858;0.252;2023-05-14T00:55:24;102128.71;;;16.40;36.32
73936;BME280;62287;50.858;0.252;2023-05-14T00:55:56;102127.75;;;16.20;36.17
73936;BME280;62287;50.858;0.252;2023-05-14T00:56:28;102128.29;;;16.52;36.41
73936;BME280;62287;50.858;0.252;2023-05-14T00:56:59;102127.21;;;16.39;36.62
73936;BME280;62287;50.858;0.252;2023-05-14T00:57:30;102126.53;;;16.09;36.47
73936;BME280;62287;50.858;0.252;2023-05-14T00:58:02;102126.56;;;16.57;36.36
73936;BME280;62287;50.858;0.252;2023-05-14T00:58:34;102130.18;;;16.39;36.36
73936;BME280;62287;50.858;0.252;2023-05-14T00:59:06;102127.57;;;16.79;35.99
73936;BME280;62287;50.858;0.252;2023-05-14T00:59:37;102128.12;;;16.70;36.12
73936;BME280;62287;50.858;0.252;2023-05-14T01:00:08;102125.83;;;16.41;36.51
73936;BME280;62287;50.858;0.252;2023-05-14T01:00:41;102125.00;;;15.90;36.75
73936;BME280;62287;50.858;0.252;2023-05-14T01:01:12;102125.31;;;15.99;36.72
73936;BME280;62287;50.858;0.252;2023-05-14T01:01:43;102123.82;;;16.74;36.43
73936;BME280;62287;50.858;0.252;2023-05-14T01:02:13;102126.00;;;16.59;36.44
73936;BME280;62287;50.858;0.252;2023-05-14T01:02:44;102125.72;;;17.10;36.09
73936;BME280;62287;50.858;0.252;2023-05-14T01:03:15;102123.20;;;16.24;36.07
73936;BME280;62287;50.858;0.252;2023-05-14T01:03:46;102122.56;;;16.16;36.11
73936;BME280;62287;50.858;0.252;2023-05-14T01:04:17;102120.83;;;16.46;36.35
73936;BME280;62287;50.858;0.252;2023-05-14T01:04:49;102119.22;;;15.98;36.50
73936;BME280;62287;50.858;0.252;2023-05-14T01:05:21;102118.63;;;16.35;36.86
73936;BME280;62287;50.858;0.252;2023-05-14T01:05:59;102115.01;;;16.30;36.84
73936;BME280;62287;50.858;0.252;2023-05-14T01:06:40;102115.92;;;16.07;36.83
73936;BME280;62287;50.858;0.252;2023-05-14T01:07:22;102113.19;;;16.30;36.53
73936;BME280;62287;50.858;0.252;2023-05-14T01:08:00;102111.62;;;16.42;36.63
73936;BME280;62287;50.858;0.252;2023-05-14T01:08:42;102110.13;;;16.07;36.96
73936;BME280;62287;50.858;0.252;2023-05-14T01:09:21;102105.95;;;16.72;36.88
73936;BME280;62287;50.858;0.252;2023-05-14T01:09:55;102106.03;;;16.65;36.59
73936;BME280;62287;50.858;0.252;2023-05-14T01:10:34;102103.98;;;16.05;36.31
73936;BME280;62287;50.858;0.252;2023-05-14T01:11:12;102104.35;;;16.45;36.64
73936;BME280;62287;50.858;0.252;2023-05-14T01:12:01;102102.16;;;16.33;36.57
73936;BME280;62287;50.858;0.252;2023-05-14T01:12:39;102101.81;;;16.24;36.59
73936;BME280;62287;50.858;0.252;2023-05-14T01:13:17;102101.99;;;16.59;36.62
73936;BME280;62287;50.858;0.252;2023-05-14T01:13:56;102102.15;;;17.22;36.28
73936;BME280;62287;50.858;0.252;2023-05-14T01:14:33;102100.66;;;16.47;36.51
73936;BME280;62287;50.858;0.252;2023-05-14T01:15:10;102099.98;;;17.26;36.39
73936;BME280;62287;50.858;0.252;2023-05-14T01:15:43;102099.79;;;16.23;36.67
73936;BME280;62287;50.858;0.252;2023-05-14T01:16:18;102101.44;;;15.70;37.12
73936;BME280;62287;50.858;0.252;2023-05-14T01:16:51;102099.61;;;16.39;36.95
73936;BME280;62287;50.858;0.252;2023-05-14T01:17:27;102098.22;;;16.20;36.92
73936;BME280;62287;50.858;0.252;2023-05-14T01:18:03;102101.42;;;16.16;36.58
73936;BME280;62287;50.858;0.252;2023-05-14T01:18:34;102100.53;;;16.71;36.25
73936;BME280;62287;50.858;0.252;2023-05-14T01:19:09;102100.91;;;16.23;36.09
73936;BME280;62287;50.858;0.252;2023-05-14T01:19:48;102100.93;;;16.41;35.89
73936;BME280;62287;50.858;0.252;2023-05-14T01:20:20;102102.02;;;16.66;35.53
73936;BME280;62287;50.858;0.252;2023-05-14T01:20:53;102101.13;;;16.51;36.14
73936;BME280;62287;50.858;0.252;2023-05-14T01:21:33;102102.64;;;16.16;36.44
73936;BME280;62287;50.858;0.252;2023-05-14T01:22:06;102099.51;;;16.33;36.21
73936;BME280;62287;50.858;0.252;2023-05-14T01:22:37;102098.97;;;16.65;36.21
73936;BME280;62287;50.858;0.252;2023-05-14T01:23:08;102099.75;;;16.57;36.37
73936;BME280;62287;50.858;0.252;2023-05-14T01:23:39;102098.91;;;16.80;36.15
73936;BME280;62287;50.858;0.252;2023-05-14T01:24:10;102100.19;;;16.37;36.06
73936;BME280;62287;50.858;0.252;2023-05-14T01:24:40;102097.84;;;16.71;36.19
73936;BME280;62287;50.858;0.252;2023-05-14T01:25:11;102098.07;;;16.60;36.50
73936;BME280;62287;50.858;0.252;2023-05-14T01:25:42;102098.44;;;16.85;36.23
73936;BME280;62287;50.858;0.252;2023-05-14T01:26:13;102098.53;;;16.75;36.34
73936;BME280;62287;50.858;0.252;2023-05-14T01:26:44;102098.96;;;16.19;36.34
73936;BME280;62287;50.858;0.252;2023-05-14T01:27:23;102099.53;;;16.67;36.49
73936;BME280;62287;50.858;0.252;2023-05-14T01:28:00;102100.43;;;16.62;36.64
73936;BME280;62287;50.858;0.252;2023-05-14T01:28:35;102101.29;;;16.24;36.49
73936;BME280;62287;50.858;0.252;2023-05-14T01:29:13;102100.83;;;16.95;36.41
73936;BME280;62287;50.858;0.252;2023-05-14T01:29:50;102100.88;;;16.35;36.53
73936;BME280;62287;50.858;0.252;2023-05-14T01:30:28;102099.84;;;16.75;36.36
73936;BME280;62287;50.858;0.252;2023-05-14T01:31:05;102098.37;;;16.86;36.22
73936;BME280;62287;50.858;0.252;2023-05-14T01:31:39;102097.74;;;17.48;36.27
73936;BME280;62287;50.858;0.252;2023-05-14T01:32:15;102096.84;;;16.56;36.09
73936;BME280;62287;50.858;0.252;2023-05-14T01:32:51;102094.92;;;16.08;36.09
73936;BME280;62287;50.858;0.252;2023-05-14T01:33:25;102095.26;;;16.46;36.60
73936;BME280;62287;50.858;0.252;2023-05-14T01:33:57;102093.00;;;16.13;36.62
73936;BME280;62287;50.858;0.252;2023-05-14T01:34:30;102093.71;;;16.66;36.38
73936;BME280;62287;50.858;0.252;2023-05-14T01:35:03;102092.23;;;16.60;36.68
73936;BME280;62287;50.858;0.252;2023-05-14T01:35:36;102090.62;;;16.50;36.48
73936;BME280;62287;50.858;0.252;2023-05-14T01:36:07;102090.94;;;16.25;36.57
73936;BME280;62287;50.858;0.252;2023-05-14T01:36:39;102088.71;;;16.22;36.53
73936;BME280;62287;50.858;0.252;2023-05-14T01:37:12;102089.96;;;16.15;36.52
73936;BME280;62287;50.858;0.252;2023-05-14T01:37:44;102089.79;;;15.98;36.46
73936;BME280;62287;50.858;0.252;2023-05-14T01:38:18;102091.01;;;16.43;36.68
73936;BME280;62287;50.858;0.252;2023-05-14T01:38:50;102091.57;;;15.98;36.60
73936;BME280;62287;50.858;0.252;2023-05-14T01:39:22;102089.90;;;15.78;36.86
73936;BME280;62287;50.858;0.252;2023-05-14T01:39:55;102089.74;;;16.00;36.68
73936;BME280;62287;50.858;0.252;2023-05-14T01:40:26;102090.88;;;16.48;36.61
73936;BME280;62287;50.858;0.252;2023-05-14T01:40:59;102091.74;;;16.46;36.97
73936;BME280;62287;50.858;0.252;2023-05-14T01:41:31;102089.89;;;16.35;37.08
73936;BME280;62287;50.858;0.252;2023-05-14T01:42:03;102091.37;;;16.16;36.90
73936;BME280;62287;50.858;0.252;2023-05-14T01:42:34;102090.61;;;16.44;36.22
73936;BME280;62287;50.858;0.252;2023-05-14T01:43:06;102088.78;;;16.94;35.83
73936;BME280;62287;50.858;0.252;2023-05-14T01:43:38;102085.67;;;16.41;36.24
73936;BME280;62287;50.858;0.252;2023-05-14T01:44:10;102083.81;;;15.91;36.37
73936;BME280;62287;50.858;0.252;2023-05-14T01:44:42;102085.86;;;16.70;36.07
73936;BME280;62287;50.858;0.252;2023-05-14T01:45:13;102081.93;;;16.46;36.06
73936;BME280;62287;50.858;0.252;2023-05-14T01:45:44;102079.53;;;16.28;36.18
73936;BME280;62287;50.858;0.252;2023-05-14T01:46:17;102079.11;;;15.97;35.81
73936;BME280;62287;50.858;0.252;2023-05-14T01:46:48;102076.90;;;16.28;35.84
73936;BME280;62287;50.858;0.252;2023-05-14T01:47:18;102077.97;;;15.93;36.07
73936;BME280;62287;50.858;0.252;2023-05-14T01:47:50;102077.64;;;15.99;36.03
73936;BME280;62287;50.858;0.252;2023-05-14T01:48:21;102077.43;;;16.02;36.28
73936;BME280;62287;50.858;0.252;2023-05-14T01:48:52;102080.39;;;16.22;36.10
73936;BME280;62287;50.858;0.252;2023-05-14T01:49:23;102081.17;;;16.01;36.22
73936;BME280;62287;50.858;0.252;2023-05-14T01:49:54;102086.59;;;16.00;36.26
73936;BME280;62287;50.858;0.252;2023-05-14T01:50:25;102089.66;;;16.00;36.52
73936;BME280;62287;50.858;0.252;2023-05-14T01:50:56;102090.82;;;15.70;36.61
73936;BME280;62287;50.858;0.252;2023-05-14T01:51:27;102091.39;;;15.79;36.08
73936;BME280;62287;50.858;0.252;2023-05-14T01:51:58;102093.25;;;15.71;36.59
73936;BME280;62287;50.858;0.252;2023-05-14T01:52:29;102092.74;;;16.01;36.72
73936;BME280;62287;50.858;0.252;2023-05-14T01:53:00;102093.81;;;15.45;37.30
73936;BME280;62287;50.858;0.252;2023-05-14T01:53:31;102091.68;;;15.77;36.98
73936;BME280;62287;50.858;0.252;2023-05-14T01:54:02;102094.19;;;16.22;36.80
73936;BME280;62287;50.858;0.252;2023-05-14T01:54:33;102091.32;;;16.11;36.54
73936;BME280;62287;50.858;0.252;2023-05-14T01:55:05;102089.31;;;16.78;36.36
73936;BME280;62287;50.858;0.252;2023-05-14T01:55:36;102087.94;;;16.45;36.33
73936;BME280;62287;50.858;0.252;2023-05-14T01:56:07;102088.66;;;16.26;36.70
73936;BME280;62287;50.858;0.252;2023-05-14T01:56:38;102087.20;;;16.36;36.70
73936;BME280;62287;50.858;0.252;2023-05-14T01:57:09;102085.27;;;16.24;36.75
73936;BME280;62287;50.858;0.252;2023-05-14T01:57:40;102086.25;;;15.85;36.64
73936;BME280;62287;50.858;0.252;2023-05-14T01:58:11;102086.37;;;16.23;36.81
73936;BME280;62287;50.858;0.252;2023-05-14T01:58:41;102084.36;;;16.31;36.65
73936;BME280;62287;50.858;0.252;2023-05-14T01:59:14;102085.86;;;16.22;36.56
73936;BME280;62287;50.858;0.252;2023-05-14T01:59:45;102086.85;;;16.41;36.97
73936;BME280;62287;50.858;0.252;2023-05-14T02:00:16;102084.81;;;15.98;36.72
73936;BME280;62287;50.858;0.252;2023-05-14T02:00:47;102086.08;;;15.86;36.48
73936;BME280;62287;50.858;0.252;2023-05-14T02:01:18;102086.91;;;16.16;36.36
73936;BME280;62287;50.858;0.252;2023-05-14T02:01:49;102086.43;;;16.06;36.37
73936;BME280;62287;50.858;0.252;2023-05-14T02:02:20;102089.26;;;16.03;36.82
73936;BME280;62287;50.858;0.252;2023-05-14T02:02:51;102089.21;;;16.14;36.90
73936;BME280;62287;50.858;0.252;2023-05-14T02:03:22;102091.42;;;15.76;36.90
73936;BME280;62287;50.858;0.252;2023-05-14T02:03:53;102093.45;;;15.73;36.93
73936;BME280;62287;50.858;0.252;2023-05-14T02:04:24;102094.07;;;16.24;36.33
73936;BME280;62287;50.858;0.252;2023-05-14T02:04:55;102096.32;;;16.29;36.25
73936;BME280;62287;50.858;0.252;2023-05-14T02:05:26;102096.84;;;16.25;36.51
73936;BME280;62287;50.858;0.252;2023-05-14T02:05:57;102099.00;;;16.23;36.48
73936;BME280;62287;50.858;0.252;2023-05-14T02:06:28;102098.76;;;16.57;36.52
73936;BME280;62287;50.858;0.252;2023-05-14T02:06:59;102098.57;;;16.52;36.23
73936;BME280;62287;50.858;0.252;2023-05-14T02:07:30;102097.29;;;15.86;36.53
73936;BME280;62287;50.858;0.252;2023-05-14T02:08:01;102099.07;;;16.57;36.28
73936;BME280;62287;50.858;0.252;2023-05-14T02:08:32;102099.48;;;16.39;36.55
73936;BME280;62287;50.858;0.252;2023-05-14T02:09:04;102099.40;;;15.90;36.79
73936;BME280;62287;50.858;0.252;2023-05-14T02:09:34;102098.98;;;15.79;36.83
73936;BME280;62287;50.858;0.252;2023-05-14T02:10:07;102095.76;;;15.68;36.73
73936;BME280;62287;50.858;0.252;2023-05-14T02:10:38;102094.61;;;16.04;36.80
73936;BME280;62287;50.858;0.252;2023-05-14T02:11:09;102095.32;;;15.06;37.22
73936;BME280;62287;50.858;0.252;2023-05-14T02:11:40;102091.39;;;15.90;36.95
73936;BME280;62287;50.858;0.252;2023-05-14T02:12:11;102092.09;;;16.64;36.62
73936;BME280;62287;50.858;0.252;2023-05-14T02:12:42;102088.61;;;16.37;36.60
73936;BME280;62287;50.858;0.252;2023-05-14T02:13:13;102089.20;;;16.68;36.58
73936;BME280;62287;50.858;0.252;2023-05-14T02:13:44;102085.66;;;16.67;36.28
73936;BME280;62287;50.858;0.252;2023-05-14T02:14:16;102084.98;;;16.60;36.36
73936;BME280;62287;50.858;0.252;2023-05-14T02:14:46;102082.45;;;15.93;36.33
73936;BME280;62287;50.858;0.252;2023-05-14T02:15:18;102082.85;;;16.34;36.47
73936;BME280;62287;50.858;0.252;2023-05-14T02:15:50;102081.91;;;16.03;36.49
73936;BME280;62287;50.858;0.252;2023-05-14T02:16:21;102081.44;;;16.29;36.26
73936;BME280;62287;50.858;0.252;2023-05-14T02:16:52;102082.09;;;15.75;36.32
73936;BME280;62287;50.858;0.252;2023-05-14T02:17:24;102080.06;;;15.91;36.27
73936;BME280;62287;50.858;0.252;2023-05-14T02:17:56;102077.34;;;15.89;36.23
73936;BME280;62287;50.858;0.252;2023-05-14T02:18:27;102077.47;;;15.84;36.10
73936;BME280;62287;50.858;0.252;2023-05-14T02:18:58;102074.31;;;16.62;35.83
73936;BME280;62287;50.858;0.252;2023-05-14T02:19:29;102074.15;;;15.95;36.08
73936;BME280;62287;50.858;0.252;2023-05-14T02:20:00;102074.32;;;15.66;36.35
73936;BME280;62287;50.858;0.252;2023-05-14T02:20:31;102073.51;;;15.70;36.44
73936;BME280;62287;50.858;0.252;2023-05-14T02:21:02;102070.89;;;15.85;36.38
73936;BME280;62287;50.858;0.252;2023-05-14T02:21:33;102068.66;;;16.05;36.45
73936;BME280;62287;50.858;0.252;2023-05-14T02:22:04;102069.59;;;16.30;36.32
73936;BME280;62287;50.858;0.252;2023-05-14T02:22:36;102068.94;;;16.26;36.24
73936;BME280;62287;50.858;0.252;2023-05-14T02:23:07;102066.92;;;15.95;36.39
73936;BME280;62287;50.858;0.252;2023-05-14T02:23:38;102068.01;;;15.78;36.63
73936;BME280;62287;50.858;0.252;2023-05-14T02:24:09;102068.30;;;15.89;36.93
73936;BME280;62287;50.858;0.252;2023-05-14T02:24:40;102068.16;;;16.10;37.02
73936;BME280;62287;50.858;0.252;2023-05-14T02:25:11;102066.11;;;15.93;36.82
73936;BME280;62287;50.858;0.252;2023-05-14T02:25:43;102066.88;;;16.48;36.62
73936;BME280;62287;50.858;0.252;2023-05-14T02:26:14;102065.73;;;16.17;36.63
73936;BME280;62287;50.858;0.252;2023-05-14T02:26:45;102065.17;;;16.03;36.33
73936;BME280;62287;50.858;0.252;2023-05-14T02:27:16;102064.39;;;16.19;36.41
73936;BME280;62287;50.858;0.252;2023-05-14T02:27:46;102063.55;;;16.03;36.62
73936;BME280;62287;50.858;0.252;2023-05-14T02:28:17;102062.40;;;15.95;36.48
73936;BME280;62287;50.858;0.252;2023-05-14T02:28:48;102062.15;;;15.97;36.28
73936;BME280;62287;50.858;0.252;2023-05-14T02:29:19;102065.82;;;15.83;36.69
73936;BME280;62287;50.858;0.252;2023-05-14T02:29:50;102062.91;;;15.56;36.74
73936;BME280;62287;50.858;0.252;2023-05-14T02:30:21;102063.64;;;15.43;37.01
73936;BME280;62287;50.858;0.252;2023-05-14T02:30:57;102064.76;;;16.10;36.94
73936;BME280;62287;50.858;0.252;2023-05-14T02:31:28;102064.65;;;15.80;36.72
73936;BME280;62287;50.858;0.252;2023-05-14T02:31:59;102066.26;;;16.04;36.45
73936;BME280;62287;50.858;0.252;2023-05-14T02:32:30;102067.62;;;16.62;36.24
73936;BME280;62287;50.858;0.252;2023-05-14T02:33:01;102068.46;;;16.64;36.21
73936;BME280;62287;50.858;0.252;2023-05-14T02:33:32;102069.02;;;16.46;36.33
73936;BME280;62287;50.858;0.252;2023-05-14T02:34:04;102069.85;;;16.80;35.79
73936;BME280;62287;50.858;0.252;2023-05-14T02:34:35;102070.61;;;16.91;36.03
73936;BME280;62287;50.858;0.252;2023-05-14T02:35:06;102073.21;;;16.64;36.14
73936;BME280;62287;50.858;0.252;2023-05-14T02:35:37;102070.49;;;16.58;35.90
73936;BME280;62287;50.858;0.252;2023-05-14T02:36:08;102071.36;;;16.72;36.22
73936;BME280;62287;50.858;0.252;2023-05-14T02:36:39;102074.06;;;16.55;36.15
73936;BME280;62287;50.858;0.252;2023-05-14T02:37:10;102073.30;;;16.44;36.16
73936;BME280;62287;50.858;0.252;2023-05-14T02:37:41;102070.98;;;15.94;36.32
73936;BME280;62287;50.858;0.252;2023-05-14T02:38:12;102072.21;;;16.83;36.52
73936;BME280;62287;50.858;0.252;2023-05-14T02:38:43;102071.56;;;16.93;36.17
73936;BME280;62287;50.858;0.252;2023-05-14T02:39:14;102071.65;;;16.82;36.31
73936;BME280;62287;50.858;0.252;2023-05-14T02:39:45;102073.53;;;16.41;36.59
73936;BME280;62287;50.858;0.252;2023-05-14T02:40:16;102073.71;;;15.99;37.00
73936;BME280;62287;50.858;0.252;2023-05-14T02:40:46;102073.33;;;15.92;36.80
73936;BME280;62287;50.858;0.252;2023-05-14T02:41:18;102073.81;;;15.92;36.94
73936;BME280;62287;50.858;0.252;2023-05-14T02:41:48;102072.10;;;16.17;36.64
73936;BME280;62287;50.858;0.252;2023-05-14T02:42:20;102072.77;;;16.19;36.29
73936;BME280;62287;50.858;0.252;2023-05-14T02:42:51;102070.14;;;15.69;36.30
73936;BME280;62287;50.858;0.252;2023-05-14T02:43:22;102070.90;;;15.99;36.53
73936;BME280;62287;50.858;0.252;2023-05-14T02:43:53;102067.27;;;16.60;36.05
73936;BME280;62287;50.858;0.252;2023-05-14T02:44:24;102066.75;;;15.80;36.52
73936;BME280;62287;50.858;0.252;2023-05-14T02:44:55;102065.38;;;15.82;36.11
73936;BME280;62287;50.858;0.252;2023-05-14T02:45:26;102064.04;;;15.43;36.49
73936;BME280;62287;50.858;0.252;2023-05-14T02:45:57;102064.57;;;15.92;36.81
73936;BME280;62287;50.858;0.252;2023-05-14T02:46:29;102064.78;;;15.71;36.82
73936;BME280;62287;50.858;0.252;2023-05-14T02:47:00;102067.87;;;15.79;36.86